Belgium, WI (53004)

10:36 AM CDT am 03. Juli 2015 (GMT -0500)
Silver Beach | | Change Station
CLOSE
Current Station
Persönliche Wetterstationen
Location: Belgium, WI
Höhe: 614 ft
Wetterstationen in der Umgebung

Höhe 614 ft 43.51 °N, 87.79 °W | Updated 5 minutes ago

Heiter
Heiter
72.5 °F
gefühlte 77 °F
N
3.7
Wind Wechselnd Wind aus Ost-Südost

Heute
Max. -- | schwach -- °F
--% Regenrisiko
Gestern
Max. -- | schwach -- °F
Precip. -- inch
5:15 AM 8:35 PM
Vollmond, 97% visible
Druck 30.00 inch
Sichtweite 10.0 Meilen
Wolken Heiter
Hitzeindex 77 °F
Taupunkt 54 °F
Feuchtigkeit 53%
Regen 0.00 inch
Schneehöhe Nicht verfügbar..
UV 8 von 12
Pollen 3.10 von 12
Luftqualität Nicht verfügbar..
Flu Activity Nicht verfügbar..
METAR KETB 031515Z AUTO 12004KT 10SM CLR 21/11 A3000 RMK AO2

More Conditions Fewer Conditions

Druck 30.00 inch
Sichtweite 10.0 Meilen
Wolken Heiter
Hitzeindex 77 °F
Taupunkt 54 °F
Feuchtigkeit 53%
Regen 0.00 inch
Schneehöhe Nicht verfügbar..
UV 8 von 12
Pollen 3.10 von 12
Luftqualität Nicht verfügbar..
Flu Activity Nicht verfügbar..
METAR KETB 031515Z AUTO 12004KT 10SM CLR 21/11 A3000 RMK AO2

More Conditions Fewer Conditions

10-Day Weather Forecast

×

Almanac

Astronomie

Jul. 03, 2015 Aufgang Untergang
Genaue Zeit
Bürgerliche Dämmerung
Nautische Dämmerung
Astronomische Dämmerung
Mond
Länge des sichtbaren Lichts
Tageslänge
Tomorrow will be .
, % of the Moon is Illuminated

Heutige Rekorde

State Highs State Lows

Community

WunderPhotos

Upload Photos

1,834,679 Fotos hochgeladen!

WunderBlogs® & News

Nearby

Luftqualität

  Luftqualität LQ Index Schadstoff
Not available.

Schneehöhe

Station Depth Höhe

Erdbebenaktivität

Stadt Distance Mag. Time & Date
Minimum magnitude displayed is 2.5.

küstennahe Wassertemperaturen

Ort Temperatur

Stations

Wetterstationen in der Umgebung

Stationsstandort Temp. Windchill Taupunkt Feuchtigkeit Wind Precip. Höhe Aktualisiert Art